createdAt,value
2019-02-14T00:00:13.513Z,-0.40
2019-02-14T00:02:41.928Z,-0.40
2019-02-14T00:05:16.195Z,-0.40
2019-02-14T00:07:40.589Z,-0.40
2019-02-14T00:10:09.906Z,-0.40
2019-02-14T00:12:38.489Z,-0.40
2019-02-14T00:15:12.050Z,-0.40
2019-02-14T00:17:40.468Z,-0.40
2019-02-14T00:20:09.936Z,-0.50
2019-02-14T00:22:38.353Z,-0.40
2019-02-14T00:25:07.159Z,-0.40
2019-02-14T00:27:35.650Z,-0.40
2019-02-14T00:30:05.177Z,-0.40
2019-02-14T00:32:33.608Z,-0.50
2019-02-14T00:35:02.034Z,-0.50
2019-02-14T00:37:30.468Z,-0.50
2019-02-14T00:39:58.893Z,-0.60
2019-02-14T00:42:27.324Z,-0.60
2019-02-14T00:44:55.739Z,-0.60
2019-02-14T00:47:24.164Z,-0.70
2019-02-14T00:49:52.592Z,-0.70
2019-02-14T00:52:21.017Z,-0.70
2019-02-14T00:54:49.444Z,-0.70
2019-02-14T00:57:17.880Z,-0.80
2019-02-14T00:59:46.302Z,-0.80
2019-02-14T01:02:14.738Z,-0.80
2019-02-14T01:04:43.164Z,-0.80
2019-02-14T01:07:11.593Z,-0.80
2019-02-14T01:09:40.022Z,-0.80
2019-02-14T01:12:09.129Z,-0.80
2019-02-14T01:14:37.547Z,-0.80
2019-02-14T01:17:06.005Z,-0.90
2019-02-14T01:19:34.672Z,-0.90
2019-02-14T01:22:03.119Z,-0.90
2019-02-14T01:24:31.540Z,-0.90
2019-02-14T01:26:59.969Z,-0.90
2019-02-14T01:29:28.388Z,-0.90
2019-02-14T01:31:58.132Z,-0.90
2019-02-14T01:34:45.884Z,-0.80
2019-02-14T01:37:14.309Z,-0.80
2019-02-14T01:39:42.809Z,-0.80
2019-02-14T01:42:11.227Z,-0.80
2019-02-14T01:44:58.990Z,-0.80
2019-02-14T01:47:27.416Z,-0.80
2019-02-14T01:49:55.828Z,-0.80
2019-02-14T01:52:24.259Z,-0.80
2019-02-14T01:54:52.680Z,-0.80
2019-02-14T01:57:21.112Z,-0.80
2019-02-14T01:59:49.538Z,-0.90
2019-02-14T02:02:17.978Z,-0.90
2019-02-14T02:04:46.409Z,-0.90
2019-02-14T02:07:14.857Z,-0.90
2019-02-14T02:09:43.558Z,-0.90
2019-02-14T02:12:11.988Z,-0.90
2019-02-14T02:14:40.429Z,-1.00
2019-02-14T02:17:08.857Z,-1.00
2019-02-14T02:19:37.297Z,-1.00
2019-02-14T02:22:06.018Z,-1.00
2019-02-14T02:24:34.503Z,-1.00
2019-02-14T02:27:02.921Z,-1.00
2019-02-14T02:29:31.364Z,-1.00
2019-02-14T02:31:59.793Z,-1.00
2019-02-14T02:34:28.306Z,-1.00
2019-02-14T02:36:56.734Z,-1.00
2019-02-14T02:39:25.182Z,-1.10
2019-02-14T02:41:53.625Z,-1.10
2019-02-14T02:44:22.120Z,-1.10
2019-02-14T02:46:50.541Z,-1.10
2019-02-14T02:49:18.981Z,-1.10
2019-02-14T02:51:47.686Z,-1.10
2019-02-14T02:54:16.137Z,-1.10
2019-02-14T02:56:44.561Z,-1.00
2019-02-14T02:59:14.238Z,-1.00
2019-02-14T03:01:42.898Z,-1.00
2019-02-14T03:04:11.345Z,-1.00
2019-02-14T03:06:39.772Z,-1.10
2019-02-14T03:09:08.214Z,-1.10
2019-02-14T03:11:36.713Z,-1.10
2019-02-14T03:14:05.176Z,-1.10
2019-02-14T03:16:33.593Z,-1.20
2019-02-14T03:19:02.046Z,-1.20
2019-02-14T03:21:30.469Z,-1.20
2019-02-14T03:23:58.905Z,-1.20
2019-02-14T03:26:27.650Z,-1.20
2019-02-14T03:28:56.090Z,-1.30
2019-02-14T03:31:24.522Z,-1.30
2019-02-14T03:33:52.949Z,-1.30
2019-02-14T03:36:21.381Z,-1.20
2019-02-14T03:38:49.809Z,-1.30
2019-02-14T03:41:18.245Z,-1.30
2019-02-14T03:43:46.673Z,-1.30
2019-02-14T03:46:15.117Z,-1.30
2019-02-14T03:48:43.532Z,-1.30
2019-02-14T03:51:11.970Z,-1.30
2019-02-14T03:53:40.477Z,-1.40
2019-02-14T03:56:08.916Z,-1.40
2019-02-14T03:58:37.358Z,-1.40
2019-02-14T04:01:05.789Z,-1.40
2019-02-14T04:03:34.208Z,-1.40
2019-02-14T04:06:02.653Z,-1.40
2019-02-14T04:08:31.430Z,-1.30
2019-02-14T04:10:59.858Z,-1.30
2019-02-14T04:13:28.293Z,-1.30
2019-02-14T04:15:57.092Z,-1.20
2019-02-14T04:18:25.537Z,-1.30
2019-02-14T04:20:53.969Z,-1.30
2019-02-14T04:23:22.392Z,-1.40
2019-02-14T04:25:50.830Z,-1.40
2019-02-14T04:28:19.256Z,-1.40
2019-02-14T04:30:47.688Z,-1.40
2019-02-14T04:33:16.254Z,-1.30
2019-02-14T04:35:44.753Z,-1.30
2019-02-14T04:38:13.178Z,-1.40
2019-02-14T04:40:41.609Z,-1.50
2019-02-14T04:43:10.025Z,-1.50
2019-02-14T04:45:38.457Z,-1.60
2019-02-14T04:48:06.872Z,-1.60
2019-02-14T04:50:35.913Z,-1.60
2019-02-14T04:53:04.336Z,-1.60
2019-02-14T04:55:32.784Z,-1.60
2019-02-14T04:58:01.209Z,-1.60
2019-02-14T05:00:29.650Z,-1.60
2019-02-14T05:02:58.073Z,-1.60
2019-02-14T05:05:26.493Z,-1.60
2019-02-14T05:07:54.924Z,-1.60
2019-02-14T05:10:23.343Z,-1.70
2019-02-14T05:12:51.781Z,-1.70
2019-02-14T05:15:20.208Z,-1.70
2019-02-14T05:17:48.653Z,-1.70
2019-02-14T05:20:17.078Z,-1.70
2019-02-14T05:22:45.501Z,-1.70
2019-02-14T05:25:15.285Z,-1.70
2019-02-14T05:27:43.710Z,-1.70
2019-02-14T05:30:18.669Z,-1.70
2019-02-14T05:32:47.100Z,-1.70
2019-02-14T05:35:15.516Z,-1.60
2019-02-14T05:37:43.946Z,-1.60
2019-02-14T05:40:12.369Z,-1.60
2019-02-14T05:42:40.805Z,-1.70
2019-02-14T05:45:14.085Z,-1.70
2019-02-14T05:47:42.524Z,-1.70
2019-02-14T05:50:14.737Z,-1.70
2019-02-14T05:52:43.180Z,-1.70
2019-02-14T05:55:12.521Z,-1.80
2019-02-14T05:57:40.970Z,-1.80
2019-02-14T06:00:17.545Z,-1.80
2019-02-14T06:02:46.037Z,-1.80
2019-02-14T06:05:14.499Z,-1.80
2019-02-14T06:07:43.202Z,-1.80
2019-02-14T06:10:12.164Z,-1.70
2019-02-14T06:12:40.592Z,-1.70
2019-02-14T06:15:28.356Z,-1.70
2019-02-14T06:20:24.865Z,-1.80
2019-02-14T06:22:53.312Z,-1.80
2019-02-14T06:25:21.737Z,-1.80
2019-02-14T06:27:50.174Z,-1.80
2019-02-14T06:30:18.600Z,-1.80
2019-02-14T06:32:47.088Z,-1.80
2019-02-14T06:35:15.504Z,-1.80
2019-02-14T06:37:43.942Z,-1.80
2019-02-14T06:40:13.704Z,-1.80
2019-02-14T06:42:42.139Z,-1.80
2019-02-14T06:45:14.880Z,-1.80
2019-02-14T06:52:40.432Z,-1.80
2019-02-14T06:55:09.648Z,-1.80
2019-02-14T07:00:11.760Z,-1.80
2019-02-14T07:05:09.644Z,-1.80
2019-02-14T07:10:08.577Z,-2.00
2019-02-14T07:12:37.004Z,-1.90
2019-02-14T07:18:00.349Z,-2.00
2019-02-14T07:20:28.773Z,-2.10
2019-02-14T07:22:57.208Z,-2.10
2019-02-14T07:27:53.792Z,-2.00
2019-02-14T07:32:51.309Z,-1.80
2019-02-14T07:35:19.881Z,-1.70
2019-02-14T07:37:48.300Z,-1.70
2019-02-14T07:40:17.216Z,-1.60
2019-02-14T07:42:45.672Z,-1.50
2019-02-14T07:45:16.180Z,-1.30
2019-02-14T07:47:44.605Z,-1.20
2019-02-14T07:50:13.733Z,-1.10
2019-02-14T07:52:42.219Z,-1.00
2019-02-14T07:55:12.197Z,-1.00
2019-02-14T08:00:12.033Z,-0.90
2019-02-14T08:05:09.602Z,-0.70
2019-02-14T08:07:38.046Z,-0.70
2019-02-14T08:10:11.963Z,-0.60
2019-02-14T08:15:11.193Z,-0.40
2019-02-14T08:20:10.568Z,-0.30
2019-02-14T08:22:39.238Z,-0.20
2019-02-14T08:25:09.909Z,-0.10
2019-02-14T08:30:12.533Z,0.00
2019-02-14T08:32:40.960Z,0.10
2019-02-14T08:35:09.667Z,0.10
2019-02-14T08:37:44.940Z,0.30
2019-02-14T08:40:12.069Z,0.40
2019-02-14T08:42:40.488Z,0.50
2019-02-14T08:47:38.472Z,0.50
2019-02-14T08:50:08.854Z,0.60
2019-02-14T08:55:09.721Z,0.70
2019-02-14T08:57:37.837Z,0.70
2019-02-14T09:00:09.629Z,0.80
2019-02-14T09:02:38.057Z,0.80
2019-02-14T09:05:07.424Z,0.80
2019-02-14T09:07:35.853Z,0.80
2019-02-14T09:12:35.579Z,0.80
2019-02-14T09:15:06.276Z,0.90
2019-02-14T09:17:34.696Z,1.00
2019-02-14T09:27:27.744Z,1.30
2019-02-14T09:32:26.040Z,1.40
2019-02-14T09:34:54.465Z,1.50
2019-02-14T09:37:22.891Z,1.50
2019-02-14T09:39:51.312Z,1.70
2019-02-14T09:42:19.794Z,1.70
2019-02-14T09:44:48.220Z,2.00
2019-02-14T09:47:16.646Z,2.10
2019-02-14T09:54:41.372Z,2.40
2019-02-14T09:59:37.905Z,2.50
2019-02-14T10:02:06.381Z,2.50
2019-02-14T10:04:34.806Z,2.60
2019-02-14T10:07:03.230Z,2.60
2019-02-14T10:09:31.645Z,2.70
2019-02-14T10:12:00.059Z,2.80
2019-02-14T10:14:28.503Z,2.80
2019-02-14T10:16:56.912Z,2.90
2019-02-14T10:19:25.340Z,3.10
2019-02-14T10:21:53.751Z,3.20
2019-02-14T10:24:22.176Z,3.30
2019-02-14T10:26:50.592Z,3.50
2019-02-14T10:29:19.028Z,3.50
2019-02-14T10:31:47.442Z,3.70
2019-02-14T10:34:15.865Z,3.70
2019-02-14T10:36:44.312Z,4.00
2019-02-14T10:39:12.793Z,4.00
2019-02-14T10:41:41.209Z,4.40
2019-02-14T10:44:09.651Z,4.40
2019-02-14T10:46:38.072Z,4.50
2019-02-14T10:49:06.505Z,4.70
2019-02-14T10:51:34.927Z,4.90
2019-02-14T10:54:03.436Z,5.20
2019-02-14T10:56:32.261Z,5.20
2019-02-14T10:59:00.709Z,5.40
2019-02-14T11:01:29.137Z,5.60
2019-02-14T11:03:57.897Z,5.70
2019-02-14T11:06:26.323Z,5.90
2019-02-14T11:08:54.732Z,5.80
2019-02-14T11:11:23.154Z,5.80
2019-02-14T11:13:51.916Z,5.80
2019-02-14T11:16:20.324Z,5.90
2019-02-14T11:18:48.774Z,5.90
2019-02-14T11:21:17.462Z,6.00
2019-02-14T11:23:46.156Z,6.00
2019-02-14T11:26:14.564Z,6.20
2019-02-14T11:28:42.993Z,6.40
2019-02-14T11:31:11.400Z,6.50
2019-02-14T11:33:39.820Z,6.70
2019-02-14T11:36:08.284Z,6.80
2019-02-14T11:41:06.519Z,7.00
2019-02-14T11:43:34.925Z,7.00
2019-02-14T11:46:03.348Z,7.10
2019-02-14T11:48:31.790Z,7.20
2019-02-14T11:53:29.436Z,7.40
2019-02-14T11:58:26.076Z,7.60
2019-02-14T12:00:54.491Z,7.70
2019-02-14T12:03:22.899Z,7.70
2019-02-14T12:08:19.417Z,7.70
2019-02-14T12:10:47.838Z,7.70
2019-02-14T12:13:16.580Z,7.70
2019-02-14T12:18:13.110Z,8.00
2019-02-14T12:20:41.528Z,8.10
2019-02-14T12:23:09.937Z,8.10
2019-02-14T12:25:38.357Z,8.20
2019-02-14T12:28:06.764Z,8.20
2019-02-14T12:33:03.282Z,8.20
2019-02-14T12:37:59.815Z,8.30
2019-02-14T12:40:28.237Z,8.40
2019-02-14T12:42:56.644Z,8.60
2019-02-14T12:47:54.791Z,8.70
2019-02-14T12:52:51.335Z,8.80
2019-02-14T12:55:19.742Z,8.90
2019-02-14T13:00:18.992Z,9.00
2019-02-14T13:05:15.493Z,8.90
2019-02-14T13:07:43.893Z,8.90
2019-02-14T13:10:15.125Z,9.00
2019-02-14T13:12:43.537Z,9.00
2019-02-14T13:15:20.823Z,9.00
2019-02-14T13:17:49.221Z,9.00
2019-02-14T13:22:45.720Z,9.00
2019-02-14T13:25:14.672Z,9.00
2019-02-14T13:27:43.088Z,9.00
2019-02-14T13:30:14.807Z,9.00
2019-02-14T13:32:43.221Z,9.10
2019-02-14T13:35:11.633Z,9.10
2019-02-14T13:37:40.564Z,9.20
2019-02-14T13:40:09.602Z,9.20
2019-02-14T13:42:38.010Z,9.30
2019-02-14T13:45:15.305Z,9.30
2019-02-14T13:47:43.798Z,9.40
2019-02-14T13:50:12.706Z,9.40
2019-02-14T13:52:41.121Z,9.40
2019-02-14T13:55:10.668Z,9.30
2019-02-14T13:57:39.152Z,9.30
2019-02-14T14:00:19.768Z,9.30
2019-02-14T14:02:48.179Z,9.30
2019-02-14T14:05:16.953Z,9.30
2019-02-14T14:07:45.361Z,9.30
2019-02-14T14:10:13.786Z,9.40
2019-02-14T14:12:42.523Z,9.40
2019-02-14T14:17:39.203Z,9.60
2019-02-14T14:20:08.947Z,9.70
2019-02-14T14:22:37.452Z,9.90
2019-02-14T14:25:07.691Z,9.90
2019-02-14T14:27:36.108Z,9.90
2019-02-14T14:30:07.929Z,9.90
2019-02-14T14:32:55.678Z,9.90
2019-02-14T14:35:24.428Z,9.90
2019-02-14T14:37:52.840Z,10.00
2019-02-14T14:40:21.253Z,9.90
2019-02-14T14:48:05.771Z,9.70
2019-02-14T14:50:34.185Z,9.60
2019-02-14T14:53:02.600Z,9.50
2019-02-14T14:55:31.004Z,9.40
2019-02-14T14:57:59.441Z,9.30
2019-02-14T15:00:27.857Z,9.20
2019-02-14T15:02:56.276Z,9.10
2019-02-14T15:05:24.681Z,9.00
2019-02-14T15:07:53.094Z,8.90
2019-02-14T15:10:21.515Z,8.90
2019-02-14T15:12:49.913Z,8.90
2019-02-14T15:15:18.663Z,8.90
2019-02-14T15:17:47.092Z,8.80
2019-02-14T15:30:11.200Z,8.80
2019-02-14T15:32:39.620Z,8.80
2019-02-14T15:35:08.899Z,8.80
2019-02-14T15:37:37.316Z,8.80
2019-02-14T15:42:36.607Z,8.80
2019-02-14T15:47:34.173Z,8.70
2019-02-14T15:50:04.336Z,8.60
2019-02-14T15:52:32.750Z,8.60
2019-02-14T15:55:01.164Z,8.40
2019-02-14T15:57:29.608Z,8.30
2019-02-14T15:59:58.064Z,8.20
2019-02-14T16:02:28.441Z,8.00
2019-02-14T16:04:56.887Z,7.90
2019-02-14T16:12:21.969Z,7.80
2019-02-14T16:14:50.571Z,8.00
2019-02-14T16:22:15.836Z,8.10
2019-02-14T16:24:45.268Z,8.10
2019-02-14T16:27:13.682Z,8.10
2019-02-14T16:29:42.101Z,8.00
2019-02-14T16:32:10.504Z,7.80
2019-02-14T16:34:38.952Z,7.70
2019-02-14T16:37:07.435Z,7.50
2019-02-14T16:39:36.708Z,7.30
2019-02-14T16:42:05.120Z,7.10
2019-02-14T16:44:33.536Z,6.90
2019-02-14T16:47:01.952Z,6.70
2019-02-14T16:49:30.373Z,6.60
2019-02-14T16:51:58.776Z,6.40
2019-02-14T16:54:27.196Z,6.30
2019-02-14T16:56:55.600Z,6.10
2019-02-14T16:59:24.056Z,6.00
2019-02-14T17:01:52.460Z,5.80
2019-02-14T17:04:20.890Z,5.70
2019-02-14T17:06:49.298Z,5.60
2019-02-14T17:09:17.766Z,5.50
2019-02-14T17:11:46.168Z,5.50
2019-02-14T17:14:14.606Z,5.50
2019-02-14T17:26:35.384Z,4.70
2019-02-14T17:31:31.885Z,4.50
2019-02-14T17:36:28.390Z,4.20
2019-02-14T17:38:56.834Z,4.30
2019-02-14T17:41:25.252Z,4.30
2019-02-14T17:43:53.681Z,4.30
2019-02-14T17:46:22.119Z,4.20
2019-02-14T17:48:50.550Z,4.20
2019-02-14T17:51:18.952Z,4.10
2019-02-14T17:53:47.376Z,4.00
2019-02-14T18:01:12.065Z,3.70
2019-02-14T18:03:40.475Z,3.60
2019-02-14T18:06:08.910Z,3.50
2019-02-14T18:08:37.409Z,3.40
2019-02-14T18:11:05.984Z,3.30
2019-02-14T18:13:34.402Z,3.10
2019-02-14T18:16:02.894Z,3.10
2019-02-14T18:23:27.506Z,2.90
2019-02-14T18:30:52.213Z,2.60
2019-02-14T18:33:20.681Z,2.50
2019-02-14T18:35:49.132Z,2.50
2019-02-14T18:38:17.544Z,2.50
2019-02-14T18:40:46.281Z,2.50
2019-02-14T18:43:14.696Z,2.50
2019-02-14T18:50:42.215Z,2.50
2019-02-14T18:53:10.624Z,2.40
2019-02-14T19:00:35.267Z,2.20
2019-02-14T19:03:03.774Z,2.10
2019-02-14T19:05:32.196Z,2.00
2019-02-14T19:08:00.622Z,1.90
2019-02-14T19:10:29.066Z,1.80
2019-02-14T19:12:57.486Z,1.60
2019-02-14T19:15:25.929Z,1.40
2019-02-14T19:17:54.346Z,1.30
2019-02-14T19:20:22.764Z,1.30
2019-02-14T19:25:19.280Z,1.20
2019-02-14T19:30:15.807Z,1.30
2019-02-14T19:35:12.424Z,1.20
2019-02-14T19:37:40.859Z,1.10
2019-02-14T19:40:09.553Z,1.20
2019-02-14T19:42:37.985Z,1.20
2019-02-14T19:47:57.121Z,1.30
2019-02-14T19:50:25.648Z,1.30
2019-02-14T19:52:54.110Z,1.20
2019-02-14T19:55:22.531Z,1.20
2019-02-14T19:57:50.945Z,1.10
2019-02-14T20:00:19.369Z,1.10
2019-02-14T20:02:47.797Z,1.10
2019-02-14T20:05:16.233Z,1.10
2019-02-14T20:07:44.653Z,1.10
2019-02-14T20:10:14.549Z,1.10
2019-02-14T20:12:43.238Z,1.10
2019-02-14T20:15:14.566Z,1.10
2019-02-14T20:17:42.994Z,1.00
2019-02-14T20:20:11.435Z,1.00
2019-02-14T20:22:39.852Z,1.00
2019-02-14T20:25:20.377Z,1.00
2019-02-14T20:27:50.041Z,0.90
2019-02-14T20:30:18.630Z,0.90
2019-02-14T20:32:47.040Z,0.80
2019-02-14T20:35:15.456Z,0.80
2019-02-14T20:37:44.178Z,0.70
2019-02-14T20:40:12.590Z,0.70
2019-02-14T20:42:41.341Z,0.70
2019-02-14T20:45:12.810Z,1.10
2019-02-14T20:47:41.276Z,0.80
2019-02-14T20:50:11.921Z,0.80
2019-02-14T20:52:40.421Z,0.80
2019-02-14T20:55:11.945Z,0.80
2019-02-14T20:57:40.382Z,0.80
2019-02-14T21:00:12.478Z,0.80
2019-02-14T21:02:40.893Z,0.80
2019-02-14T21:05:09.320Z,0.80
2019-02-14T21:07:37.751Z,0.80
2019-02-14T21:10:07.566Z,0.80
2019-02-14T21:12:36.000Z,0.70
2019-02-14T21:15:05.676Z,0.70
2019-02-14T21:17:34.100Z,0.60
2019-02-14T21:20:02.524Z,0.60
2019-02-14T21:22:30.934Z,0.60
2019-02-14T21:24:59.366Z,0.50
2019-02-14T21:27:27.777Z,0.50
2019-02-14T21:29:56.215Z,0.50
2019-02-14T21:32:24.627Z,0.50
2019-02-14T21:34:53.075Z,0.50
2019-02-14T21:37:21.565Z,0.50
2019-02-14T21:39:49.987Z,0.50
2019-02-14T21:42:22.077Z,0.50
2019-02-14T21:44:48.619Z,0.40
2019-02-14T21:47:17.139Z,0.40
2019-02-14T21:49:45.630Z,0.30
2019-02-14T21:52:14.400Z,0.30
2019-02-14T21:54:42.879Z,0.30
2019-02-14T21:57:11.291Z,0.30
2019-02-14T21:59:39.737Z,0.30
2019-02-14T22:02:08.175Z,0.20
2019-02-14T22:04:36.658Z,0.10
2019-02-14T22:07:05.204Z,0.10
2019-02-14T22:09:33.759Z,0.00
2019-02-14T22:12:02.216Z,0.10
2019-02-14T22:14:30.762Z,0.10
2019-02-14T22:16:59.591Z,0.10
2019-02-14T22:19:28.026Z,0.10
2019-02-14T22:21:56.447Z,0.20
2019-02-14T22:24:24.893Z,0.20
2019-02-14T22:26:53.380Z,0.20
2019-02-14T22:29:21.872Z,0.30
2019-02-14T22:31:50.295Z,0.30
2019-02-14T22:34:18.721Z,0.30
2019-02-14T22:36:47.141Z,0.40
2019-02-14T22:39:15.565Z,0.50
2019-02-14T22:41:44.001Z,0.40
2019-02-14T22:44:12.416Z,0.40
2019-02-14T22:46:40.841Z,0.40
2019-02-14T22:49:09.286Z,0.40
2019-02-14T22:51:37.784Z,0.40
2019-02-14T22:54:06.499Z,0.40
2019-02-14T22:56:34.933Z,0.30
2019-02-14T22:59:03.361Z,0.30
2019-02-14T23:01:31.848Z,0.20
2019-02-14T23:04:00.281Z,0.10
2019-02-14T23:06:29.577Z,0.00
2019-02-14T23:08:58.041Z,0.00
2019-02-14T23:11:26.461Z,0.00
2019-02-14T23:13:54.885Z,-0.10
2019-02-14T23:16:23.436Z,-0.10
2019-02-14T23:18:52.134Z,-0.20
2019-02-14T23:21:20.568Z,-0.30
2019-02-14T23:23:49.004Z,-0.30
2019-02-14T23:26:17.433Z,-0.40
2019-02-14T23:28:45.861Z,-0.40
2019-02-14T23:31:14.301Z,-0.50
2019-02-14T23:33:42.734Z,-0.60
2019-02-14T23:36:11.170Z,-0.70
2019-02-14T23:38:39.597Z,-0.70
2019-02-14T23:41:08.028Z,-0.80
2019-02-14T23:43:36.464Z,-0.90
2019-02-14T23:46:04.901Z,-0.90
2019-02-14T23:48:33.339Z,-0.90
2019-02-14T23:51:03.507Z,-0.90
2019-02-14T23:53:31.924Z,-0.80
2019-02-14T23:56:00.369Z,-0.70
2019-02-14T23:58:28.786Z,-0.70
